Pays
Station

 

Conditions  météo  pour  Agra  -  Inde    Inde

  
26 °C
    
 
 

METAR pour Agra :

VIAG 311730Z 05003KT 6000 SKC 26/13 Q1009 NOSIG

 

Voici le bulletin pour Agra - Inde.
 
Le bulletin a été fait il y a 608 heures et 18 minutes, à 17:30 UTC .
Le vent soufflait à la vitesse de 1.5 mètres par seconde de Nord-est (050°).
 
La température était de 26 °C, avec un point de rosée à 13 °C.
La température ressentie était de 27 °C.
 
La pression atmosphérique était de 1009 hPa.
L'humidité relative était de 44.6%.
 
Le ciel était clair.
 
La visibilité globale était de 6.0 kilomètres.
 

 
 
 

Pays :   A   B   C   D   E   F   G   H   I   J   K   L   M   N   O   P   Q   R   S   T   U   V   W   Y   Z

 

Partenaires :  Info Météo avec Met'info
Météo Marine avec MeteoMarine.net
Infos Site  |  Infos Légales  |  Crédits  |  Confidentialité
Contactez-nous  |  Ajouter aux favoris
© 2013-2018 METAR - Tous droits réservés